Perkins, Georgia
Current Conditions -  °F | °C
As of 7:55 AM on Thursday 27 Nov 2014 (Local Time) from KJYL Reporting Station
Clear Clear  
Wind Chill: 43°   Ceiling: Unl
Heat Index: 47°   Visibility: 10mi
Dew Point: 36°   Wind: 10mph
Humidity: 64%   Direction: 290°WNW
Pressure: 30.18"   Gusts: 17mph
Location:  32.91°N, 81.95°W
Report Text: KJYL 271255Z AUTO 29009G15KT 10SM CLR 09/02 A3018 RMK AO2 T00850021
Loading
Personal Weather Stations






























Interactive Weather Map New forecast layout! Learn more

10-Day Weather Forecast

Advertisements
Track Severe Weather on mobile